Warning: Javascript must be enabled to use all the features on this page!


Page Loading - Please Wait...

Click to hideNews Bulletins
  • Have your voice heard. Have a few minutes? We're surveying users about their experience with Water Data for the Nation (WDFN). Please take a few minutes to complete our online survey.
  • See the Water Data for the Nation Blog for the latest news and updates.

Peak Streamflow for the Nation

USGS 09171100 DOLORES RIVER NEAR BEDROCK, CO.

Montrose County, Colorado
Hydrologic Unit Code 14030002
Latitude  38°21'25", Longitude 108°49'58" NAD27
Drainage area 2,147  square miles
Gage datum 4,910 feet above NGVD29
Output formats
Table
Graph
Tab-separated file
peakfq (watstore) format
Reselect output format
Water
Year
Date Gage
Height
(feet)
Stream-
flow
(cfs)
1970 1970-09-06 11.25 5,7105
1971 1971-08-28 10.30 6,0505
1972 1971-10-17 8.57 1,9705
1973 1973-04-30 12.886 9,5005
1974 1974-07-17 8.61 3,2705
1975 1975-04-26 11.96 7,9405
1976 1976-05-19 7.93 2,2605
1977 1977-07-19 11.14 6,6705
1978 1978-05-20 10.30 4,7905
1979 1979-04-19 12.52 8,5405
1980 1980-04-22 12.45 8,4605
1981 1981-05-05 6.62 1,3105
1982 1982-04-13 9.80 4,4305
1983 1983-04-27 11.99 7,7105
1984 1984-04-18 10.65 5,1605
1985 1985-04-09 10.59 5,2005
1986 1986-05-06 10.82 5,2605
1987 1987-04-18 10.47 5,0405
1988 1987-11-06 8.07 2,3305
1989 1989-04-21 6.10 1,0005
1990 1990-09-06 5.66 7785
1991 1991-05-22 5.87 8885
1992 1992-05-27 8.92 3,2905
1993 1993-05-20 10.13 4,6805
1994 1994-05-19 7.65 2,1405
1995 1995-06-21 9.00 3,2405
1996 1996-09-14 5.25 5925
1997 1997-05-25 9.58 4,1205
1998 1998-05-07 9.64 3,9405
1999 1999-05-26 9.03 3,2805
2000 2000-04-30 6.54 1,2305
2001 2001-04-18 4.676,2 8525
2002 2002-09-12 5.93 1,6305
2003 2003-09-10 7.54 3,2805
2004 2004-09-21 4.58 6295
2005 2005-05-26 8.89 5,3205
2006 2006-08-07 6.93 2,5305
2007 2006-10-07 6.96 2,5605
2008 2008-05-23 6.42 1,8805
2009 2009-05-26 6.62 2,1205
2010 2010-08-05 6.17 1,6705
2011 2011-06-06 5.82 1,4105
2012 2012-08-25 4.32 5575
2013 2013-09-23 7.57 3,4105
2014 2014-08-13 5.47 1,1305
2015 2015-08-02 5.83 1,3905
2016 2016-06-13 5.69 1,1505
2017 2017-05-08 8.68 3,5705
2018 2018-08-27 7.01 2,0905
2019 2019-06-16 8.42 3,3105
2020 2020-02-08 2.682 74.95
2021 2021-08-19 6.84 1,9605
?
  Peak Gage-Height Qualification Codes.
?
  Peak Streamflow Qualification Codes.